createdAt,value
2023-05-12T00:02:51.268Z,8.77
2023-05-12T00:07:12.315Z,9.20
2023-05-12T00:11:21.660Z,8.67
2023-05-12T00:15:30.492Z,8.03
2023-05-12T00:19:40.858Z,6.90
2023-05-12T00:23:49.590Z,8.20
2023-05-12T00:28:18.568Z,6.30
2023-05-12T00:32:28.173Z,7.50
2023-05-12T00:36:36.776Z,6.20
2023-05-12T00:40:45.399Z,5.60
2023-05-12T00:44:54.034Z,5.73
2023-05-12T00:49:03.368Z,6.00
2023-05-12T00:53:45.027Z,6.00
2023-05-12T00:57:43.554Z,5.03
2023-05-12T01:01:52.207Z,5.73
2023-05-12T01:06:19.370Z,5.80
2023-05-12T01:10:28.103Z,4.93
2023-05-12T01:14:36.831Z,6.70
2023-05-12T01:18:49.472Z,7.50
2023-05-12T01:22:59.073Z,6.93
2023-05-12T01:27:08.614Z,6.63
2023-05-12T01:31:20.890Z,7.17
2023-05-12T01:35:28.576Z,9.67
2023-05-12T01:39:37.735Z,8.03
2023-05-12T01:43:46.421Z,10.30
2023-05-12T01:47:55.212Z,9.40
2023-05-12T01:52:04.846Z,10.27
2023-05-12T01:56:13.560Z,9.40
2023-05-12T02:00:22.773Z,9.40
2023-05-12T02:04:31.635Z,12.53
2023-05-12T02:08:40.264Z,11.23
2023-05-12T02:12:48.916Z,14.27
2023-05-12T02:16:57.622Z,11.80
2023-05-12T02:21:06.676Z,12.63
2023-05-12T02:25:15.390Z,13.67
2023-05-12T02:29:24.004Z,12.87
2023-05-12T02:33:32.640Z,14.50
2023-05-12T02:37:41.254Z,14.77
2023-05-12T02:41:49.857Z,13.70
2023-05-12T02:45:58.603Z,12.47
2023-05-12T02:50:09.156Z,13.53
2023-05-12T02:54:17.844Z,11.70
2023-05-12T02:58:26.543Z,11.17
2023-05-12T03:02:39.314Z,11.17
2023-05-12T03:06:48.135Z,10.17
2023-05-12T03:10:56.718Z,9.00
2023-05-12T03:15:26.608Z,8.10
2023-05-12T03:19:35.325Z,6.93
2023-05-12T03:23:44.050Z,7.77
2023-05-12T03:27:52.781Z,6.20
2023-05-12T03:32:01.728Z,7.17
2023-05-12T03:36:10.655Z,6.63
2023-05-12T03:40:19.665Z,6.60
2023-05-12T03:44:28.627Z,6.23
2023-05-12T03:48:37.684Z,6.90
2023-05-12T03:52:46.399Z,6.80
2023-05-12T03:56:55.229Z,5.90
2023-05-12T04:01:04.240Z,6.07
2023-05-12T04:05:13.024Z,6.73
2023-05-12T04:09:22.047Z,6.67
2023-05-12T04:13:34.182Z,5.93
2023-05-12T04:17:43.148Z,8.40
2023-05-12T04:21:51.841Z,7.67
2023-05-12T04:26:00.586Z,7.60
2023-05-12T04:30:10.079Z,7.67
2023-05-12T04:34:20.630Z,6.87
2023-05-12T04:38:29.037Z,6.25
2023-05-12T04:42:37.870Z,6.07
2023-05-12T04:46:46.496Z,5.90
2023-05-12T04:50:55.227Z,7.30
2023-05-12T04:55:04.782Z,6.10
2023-05-12T04:59:15.198Z,6.90
2023-05-12T05:03:24.189Z,6.53
2023-05-12T05:07:32.920Z,7.00
2023-05-12T05:11:41.650Z,7.40
2023-05-12T05:15:54.023Z,7.47
2023-05-12T05:20:09.455Z,6.93
2023-05-12T05:24:12.963Z,7.50
2023-05-12T05:28:21.594Z,6.80
2023-05-12T05:32:30.244Z,6.07
2023-05-12T05:36:39.365Z,5.70
2023-05-12T05:40:53.533Z,6.17
2023-05-12T05:44:58.263Z,5.93
2023-05-12T05:49:06.985Z,5.50
2023-05-12T05:53:17.257Z,5.70
2023-05-12T05:57:27.573Z,6.87
2023-05-12T06:01:36.435Z,6.53
2023-05-12T06:05:45.381Z,6.97
2023-05-12T06:09:56.994Z,6.80
2023-05-12T06:14:25.000Z,5.90
2023-05-12T06:18:38.336Z,5.57
2023-05-12T06:22:47.041Z,5.30
2023-05-12T06:26:55.668Z,4.63
2023-05-12T06:31:23.691Z,5.43
2023-05-12T06:35:32.691Z,5.73
2023-05-12T06:39:41.441Z,6.00
2023-05-12T06:43:50.160Z,5.40
2023-05-12T06:47:58.842Z,4.93
2023-05-12T06:52:08.132Z,5.10
2023-05-12T06:56:17.312Z,5.53
2023-05-12T07:00:26.941Z,5.40
2023-05-12T07:04:36.293Z,4.80
2023-05-12T07:08:44.893Z,5.80
2023-05-12T07:12:53.841Z,5.43
2023-05-12T07:21:18.358Z,5.20
2023-05-12T07:25:28.183Z,5.10
2023-05-12T07:29:36.950Z,5.03
2023-05-12T07:33:45.654Z,4.50
2023-05-12T07:37:54.311Z,4.70
2023-05-12T07:42:03.377Z,5.13
2023-05-12T07:46:12.052Z,4.93
2023-05-12T07:50:21.428Z,5.00
2023-05-12T07:54:30.004Z,4.37
2023-05-12T07:58:38.628Z,5.17
2023-05-12T08:02:47.459Z,4.57
2023-05-12T08:06:56.361Z,4.57
2023-05-12T08:11:05.024Z,4.00
2023-05-12T08:15:13.903Z,4.30
2023-05-12T08:19:22.758Z,4.40
2023-05-12T08:23:31.476Z,4.50
2023-05-12T08:27:40.229Z,4.70
2023-05-12T08:31:48.940Z,4.53
2023-05-12T08:35:58.027Z,4.93
2023-05-12T08:40:09.972Z,4.47
2023-05-12T08:44:20.556Z,4.60
2023-05-12T08:48:32.115Z,4.90
2023-05-12T08:52:41.280Z,4.40
2023-05-12T09:01:06.290Z,5.40
2023-05-12T09:05:15.226Z,6.00
2023-05-12T09:09:25.992Z,5.13
2023-05-12T09:13:48.164Z,5.30
2023-05-12T09:17:56.854Z,4.17
2023-05-12T09:22:05.667Z,4.43
2023-05-12T09:26:14.296Z,5.23
2023-05-12T09:30:35.654Z,4.17
2023-05-12T09:34:44.863Z,4.50
2023-05-12T09:39:13.564Z,4.07
2023-05-12T09:43:22.292Z,4.07
2023-05-12T09:47:37.800Z,4.10
2023-05-12T09:51:46.740Z,4.17
2023-05-12T09:55:58.213Z,4.97
2023-05-12T10:00:31.216Z,4.80
2023-05-12T10:04:26.473Z,4.23
2023-05-12T10:08:57.887Z,4.43
2023-05-12T10:13:06.926Z,5.10
2023-05-12T10:17:16.189Z,5.17
2023-05-12T10:21:28.111Z,4.53
2023-05-12T10:25:36.911Z,5.27
2023-05-12T10:29:48.259Z,4.90
2023-05-12T10:33:59.081Z,4.37
2023-05-12T10:38:10.428Z,4.60
2023-05-12T10:42:27.090Z,4.97
2023-05-12T10:46:35.951Z,4.90
2023-05-12T10:50:55.276Z,4.03
2023-05-12T10:55:04.945Z,4.17
2023-05-12T10:59:19.610Z,4.57
2023-05-12T11:03:30.215Z,4.80
2023-05-12T11:08:00.457Z,4.20
2023-05-12T11:12:11.147Z,4.70
2023-05-12T11:16:21.304Z,4.47
2023-05-12T11:20:31.045Z,4.70
2023-05-12T11:24:42.582Z,4.00
2023-05-12T11:28:51.581Z,4.37
2023-05-12T11:33:04.362Z,4.23
2023-05-12T11:37:13.022Z,4.50
2023-05-12T11:41:27.834Z,3.80
2023-05-12T11:45:36.548Z,5.03
2023-05-12T11:49:55.948Z,4.83
2023-05-12T11:54:06.245Z,5.57
2023-05-12T11:58:18.090Z,4.50
2023-05-12T12:02:27.318Z,4.57
2023-05-12T12:06:39.187Z,4.03
2023-05-12T12:10:48.463Z,4.47
2023-05-12T12:14:58.745Z,4.50
2023-05-12T12:19:08.787Z,4.23
2023-05-12T12:23:17.642Z,3.93
2023-05-12T12:27:26.245Z,4.47
2023-05-12T12:31:36.409Z,4.20
2023-05-12T12:35:45.165Z,4.15
2023-05-12T12:39:54.306Z,4.10
2023-05-12T12:44:02.926Z,4.93
2023-05-12T12:48:11.746Z,3.97
2023-05-12T12:52:20.498Z,4.33
2023-05-12T12:56:29.959Z,4.30
2023-05-12T13:00:38.815Z,3.90
2023-05-12T13:04:47.507Z,4.50
2023-05-12T13:08:56.652Z,4.40
2023-05-12T13:13:06.279Z,3.80
2023-05-12T13:17:14.880Z,4.93
2023-05-12T13:21:23.669Z,4.17
2023-05-12T13:25:32.293Z,4.87
2023-05-12T13:29:42.177Z,4.10
2023-05-12T13:33:50.983Z,4.80
2023-05-12T13:38:00.467Z,4.53
2023-05-12T13:42:09.185Z,3.93
2023-05-12T13:46:17.817Z,4.00
2023-05-12T13:50:26.511Z,4.10
2023-05-12T13:54:35.157Z,4.13
2023-05-12T13:58:44.488Z,4.63
2023-05-12T14:02:53.232Z,4.10
2023-05-12T14:07:01.897Z,4.60
2023-05-12T14:11:11.404Z,3.93
2023-05-12T14:15:32.443Z,4.97
2023-05-12T14:19:30.576Z,4.10
2023-05-12T14:23:39.209Z,4.30
2023-05-12T14:27:49.457Z,4.60
2023-05-12T14:31:58.313Z,4.43
2023-05-12T14:36:08.722Z,4.33
2023-05-12T14:40:19.384Z,4.50
2023-05-12T14:44:28.449Z,4.40
2023-05-12T14:48:37.211Z,4.00
2023-05-12T14:52:52.741Z,5.50
2023-05-12T14:57:01.748Z,4.53
2023-05-12T15:01:10.453Z,4.53
2023-05-12T15:05:19.420Z,4.20
2023-05-12T15:09:28.391Z,4.20
2023-05-12T15:13:36.996Z,4.17
2023-05-12T15:17:45.686Z,4.27
2023-05-12T15:21:54.380Z,4.00
2023-05-12T15:26:21.079Z,5.00
2023-05-12T15:30:17.940Z,4.80
2023-05-12T15:34:26.550Z,4.50
2023-05-12T15:38:35.302Z,4.87
2023-05-12T15:42:44.382Z,4.60
2023-05-12T15:46:54.844Z,5.27
2023-05-12T15:51:07.797Z,5.50
2023-05-12T15:55:16.860Z,5.23
2023-05-12T15:59:26.121Z,4.70
2023-05-12T16:03:34.955Z,5.10
2023-05-12T16:07:44.965Z,5.63
2023-05-12T16:11:54.926Z,5.23
2023-05-12T16:16:23.162Z,5.43
2023-05-12T16:20:32.042Z,4.90
2023-05-12T16:24:41.085Z,5.43
2023-05-12T16:28:49.711Z,4.93
2023-05-12T16:32:58.501Z,5.90
2023-05-12T16:37:07.173Z,5.67
2023-05-12T16:41:16.052Z,5.27
2023-05-12T16:45:25.664Z,5.23
2023-05-12T16:49:34.475Z,6.40
2023-05-12T16:53:47.713Z,5.70
2023-05-12T16:57:56.594Z,5.50
2023-05-12T17:02:05.685Z,5.10
2023-05-12T17:06:14.335Z,6.70
2023-05-12T17:10:23.138Z,5.40
2023-05-12T17:14:32.145Z,6.10
2023-05-12T17:22:51.576Z,5.63
2023-05-12T17:27:00.214Z,5.90
2023-05-12T17:31:08.950Z,5.87
2023-05-12T17:35:18.215Z,5.67
2023-05-12T17:39:26.856Z,6.80
2023-05-12T17:43:35.573Z,7.97
2023-05-12T17:47:45.413Z,8.83
2023-05-12T17:56:26.488Z,7.90
2023-05-12T18:00:35.232Z,7.50
2023-05-12T18:04:43.910Z,7.00
2023-05-12T18:08:52.487Z,6.60
2023-05-12T18:13:01.168Z,7.00
2023-05-12T18:17:09.963Z,6.60
2023-05-12T18:21:19.040Z,6.60
2023-05-12T18:25:27.665Z,7.63
2023-05-12T18:29:36.410Z,6.80
2023-05-12T18:33:50.045Z,7.00
2023-05-12T18:37:59.902Z,7.57
2023-05-12T18:42:09.552Z,7.50
2023-05-12T18:46:18.954Z,7.30
2023-05-12T18:50:27.840Z,7.17
2023-05-12T18:54:37.319Z,6.87
2023-05-12T18:58:46.381Z,7.60
2023-05-12T19:03:14.506Z,7.30
2023-05-12T19:07:42.429Z,8.30
2023-05-12T19:11:51.343Z,7.50
2023-05-12T19:16:00.134Z,8.37
2023-05-12T19:20:10.653Z,7.43
2023-05-12T19:24:19.559Z,7.87
2023-05-12T19:28:48.736Z,8.20
2023-05-12T19:32:57.673Z,8.73
2023-05-12T19:37:06.955Z,7.70
2023-05-12T19:41:15.570Z,7.70
2023-05-12T19:45:24.288Z,8.00
2023-05-12T19:49:34.640Z,7.73
2023-05-12T19:53:43.747Z,7.60
2023-05-12T19:57:52.383Z,8.70
2023-05-12T20:02:01.127Z,7.90
2023-05-12T20:06:09.920Z,8.80
2023-05-12T20:10:18.755Z,7.73
2023-05-12T20:14:27.378Z,7.70
2023-05-12T20:18:36.020Z,7.87
2023-05-12T20:22:44.639Z,8.20
2023-05-12T20:26:53.278Z,9.03
2023-05-12T20:31:02.123Z,8.53
2023-05-12T20:35:10.948Z,8.87
2023-05-12T20:39:19.741Z,7.63
2023-05-12T20:43:28.397Z,9.40
2023-05-12T20:47:37.586Z,9.00
2023-05-12T20:51:46.392Z,8.27
2023-05-12T20:55:55.101Z,9.40
2023-05-12T21:00:04.153Z,9.30
2023-05-12T21:04:13.461Z,9.00
2023-05-12T21:08:22.211Z,8.43
2023-05-12T21:12:31.260Z,9.80
2023-05-12T21:16:40.038Z,10.10
2023-05-12T21:20:48.820Z,10.27
2023-05-12T21:24:57.804Z,10.47
2023-05-12T21:29:06.405Z,8.90
2023-05-12T21:33:34.471Z,9.30
2023-05-12T21:37:43.108Z,9.17
2023-05-12T21:41:51.722Z,8.30
2023-05-12T21:46:05.109Z,9.17
2023-05-12T21:50:13.820Z,10.17
2023-05-12T21:54:22.526Z,8.70
2023-05-12T21:58:50.950Z,8.80
2023-05-12T22:02:59.738Z,8.80
2023-05-12T22:07:08.663Z,9.40
2023-05-12T22:11:17.420Z,8.63
2023-05-12T22:15:26.154Z,9.37
2023-05-12T22:19:34.882Z,9.20
2023-05-12T22:23:43.716Z,9.70
2023-05-12T22:27:52.290Z,9.73
2023-05-12T22:32:00.973Z,9.43
2023-05-12T22:36:10.440Z,9.30
2023-05-12T22:40:20.896Z,9.57
2023-05-12T22:44:29.624Z,9.93
2023-05-12T22:48:39.584Z,9.23
2023-05-12T22:52:48.523Z,10.03
2023-05-12T22:56:57.255Z,9.83
2023-05-12T23:01:06.433Z,9.50
2023-05-12T23:05:15.433Z,9.73
2023-05-12T23:09:43.440Z,10.37
2023-05-12T23:13:52.144Z,10.30
2023-05-12T23:18:01.121Z,9.93
2023-05-12T23:22:29.270Z,11.33
2023-05-12T23:26:37.999Z,11.27
2023-05-12T23:30:46.635Z,11.07
2023-05-12T23:34:55.261Z,10.23
2023-05-12T23:39:04.133Z,10.27
2023-05-12T23:43:12.715Z,10.93
2023-05-12T23:47:21.434Z,10.37
2023-05-12T23:51:30.194Z,11.83
2023-05-12T23:55:58.269Z,10.20
